Time;durP1;ratioP1;P1;durP2;ratioP2;P2;SDS_P1;SDS_P2;PMS_P1;PMS_P2;Temp;Humidity;BMP_temperature;BMP_pressure;BME280_temperature;BME280_humidity;BME280_pressure;Samples;Min_cycle;Max_cycle;Signal;HPM_P1;HPM_P2
2022/04/15 00:01:21;;;;;;;;;6.00;0.00;;;;;15.45;58.35;101577.88;5087450;27;45376;-76
2022/04/15 00:03:46;;;;;;;;;6.00;3.00;;;;;15.47;58.73;101591.16;5095079;27;45444;-76
2022/04/15 00:06:12;;;;;;;;;4.25;4.25;;;;;15.41;58.56;101578.88;5064273;28;45536;-77
2022/04/15 00:08:38;;;;;;;;;3.75;3.75;;;;;15.40;58.53;101579.78;5075132;27;45374;-75
2022/04/15 00:11:04;;;;;;;;;4.00;3.00;;;;;15.41;58.70;101586.00;5076229;28;45504;-75
2022/04/15 00:13:31;;;;;;;;;3.25;3.00;;;;;15.37;58.87;101587.00;5075215;28;45579;-76
2022/04/15 00:15:57;;;;;;;;;3.25;3.25;;;;;15.33;58.76;101574.66;5067132;27;47589;-76
2022/04/15 00:18:24;;;;;;;;;7.00;3.25;;;;;15.34;58.97;101582.59;5097185;27;45544;-76
2022/04/15 00:20:52;;;;;;;;;6.75;4.00;;;;;15.33;58.84;101578.19;5074228;27;45499;-80
2022/04/15 00:23:20;;;;;;;;;4.00;4.00;;;;;15.33;59.17;101580.84;5097346;27;45512;-81
2022/04/15 00:25:46;;;;;;;;;9.00;7.00;;;;;15.31;59.68;101581.81;5095727;27;46216;-80
2022/04/15 00:28:12;;;;;;;;;5.50;3.50;;;;;15.29;59.34;101589.84;5094973;27;45401;-79
2022/04/15 00:30:37;;;;;;;;;3.00;3.00;;;;;15.28;59.33;101583.63;5099041;27;45444;-81
2022/04/15 00:33:02;;;;;;;;;4.00;1.00;;;;;15.25;59.58;101583.69;5100588;27;45566;-81
2022/04/15 00:35:28;;;;;;;;;3.00;3.00;;;;;15.26;59.71;101589.91;5102426;27;46227;-80
2022/04/15 00:37:53;;;;;;;;;10.50;6.75;;;;;15.21;59.82;101589.13;5103886;27;45465;-80
2022/04/15 00:40:18;;;;;;;;;6.00;6.00;;;;;15.16;59.92;101581.25;5096632;27;45524;-79
2022/04/15 00:42:44;;;;;;;;;4.25;3.00;;;;;15.04;59.90;101563.75;5102448;27;45401;-80
2022/04/15 00:45:09;;;;;;;;;4.00;1.00;;;;;15.14;59.87;101587.50;5101890;27;46324;-81
2022/04/15 00:47:54;;;;;;;;;6.00;3.00;;;;;15.13;60.31;101588.44;5080953;27;45421;-80
2022/04/15 00:50:27;;;;;;;;;4.00;4.00;;;;;15.12;60.45;101592.00;5082291;27;45514;-80
2022/04/15 00:52:58;;;;;;;;;2.50;2.50;;;;;15.08;60.30;101586.75;5077105;28;45338;-75
2022/04/15 00:55:24;;;;;;;;;3.00;3.00;;;;;15.06;60.47;101583.25;5092165;27;46350;-75
2022/04/15 00:58:03;;;;;;;;;4.00;2.00;;;;;15.02;60.56;101581.56;5098326;27;45459;-75
2022/04/15 01:00:31;;;;;;;;;5.00;3.00;;;;;14.99;60.80;101592.28;5062230;28;45414;-76
2022/04/15 01:02:58;;;;;;;;;6.00;4.00;;;;;14.96;60.81;101581.72;5077745;28;45505;-75
2022/04/15 01:05:24;;;;;;;;;7.50;5.50;;;;;14.96;60.84;101581.72;5091742;27;46227;-75
2022/04/15 01:07:55;;;;;;;;;3.00;3.00;;;;;14.87;60.96;101571.28;5098052;27;45573;-76
2022/04/15 01:10:24;;;;;;;;;6.25;4.00;;;;;14.88;61.18;101579.22;5086757;27;45415;-74
2022/04/15 01:12:53;;;;;;;;;6.00;6.00;;;;;14.87;61.08;101587.25;5098774;27;45385;-76
2022/04/15 01:15:20;;;;;;;;;6.75;6.75;;;;;14.85;61.11;101581.06;5083919;27;46070;-75
2022/04/15 01:17:45;;;;;;;;;3.00;2.00;;;;;14.82;61.13;101583.78;5078149;28;45523;-81
2022/04/15 01:20:12;;;;;;;;;6.00;4.50;;;;;14.85;61.35;101594.34;5064241;28;45463;-82
2022/04/15 01:22:39;;;;;;;;;7.00;4.00;;;;;14.84;60.74;101587.31;5077859;28;45476;-81
2022/04/15 01:25:13;;;;;;;;;4.00;3.00;;;;;14.83;60.89;101593.53;5089764;27;46379;-76
2022/04/15 01:27:40;;;;;;;;;5.00;3.25;;;;;14.82;61.09;101595.31;5097106;27;45378;-77
2022/04/15 01:30:09;;;;;;;;;4.50;3.50;;;;;14.75;61.31;101586.56;5097131;27;45661;-76
2022/04/15 01:32:35;;;;;;;;;3.75;2.50;;;;;14.74;60.92;101583.94;5097953;27;45338;-75
2022/04/15 01:35:00;;;;;;;;;4.75;4.50;;;;;14.72;61.21;101586.66;5096874;27;45338;-75
2022/04/15 01:37:30;;;;;;;;;7.50;7.50;;;;;14.68;61.40;101584.97;5096368;27;45536;-76
2022/04/15 01:39:56;;;;;;;;;7.00;7.00;;;;;14.63;61.48;101581.53;5073743;27;45572;-76
2022/04/15 01:42:22;;;;;;;;;4.00;4.00;;;;;14.51;61.91;101569.31;5065489;28;45450;-75
2022/04/15 01:44:47;;;;;;;;;6.25;5.50;;;;;14.61;61.80;101586.00;5076087;28;46382;-75
2022/04/15 01:47:12;;;;;;;;;3.50;3.00;;;;;14.58;61.75;101591.34;5076537;28;45406;-76
2022/04/15 01:49:38;;;;;;;;;3.75;3.00;;;;;14.58;61.48;101581.59;5085173;27;46035;-75
2022/04/15 01:52:05;;;;;;;;;7.75;6.50;;;;;14.59;61.50;101593.13;5096500;27;45560;-76
2022/04/15 01:54:31;;;;;;;;;4.50;4.50;;;;;14.53;61.75;101583.47;5083346;27;45492;-76
2022/04/15 01:56:57;;;;;;;;;2.50;1.00;;;;;14.51;61.61;101581.75;5076391;28;45434;-76
2022/04/15 01:59:23;;;;;;;;;6.00;6.00;;;;;14.52;62.22;101586.16;5083441;27;45513;-74
2022/04/15 02:01:49;;;;;;;;;6.50;4.00;;;;;14.52;61.71;101586.16;5095975;27;45358;-75
2022/04/15 02:04:15;;;;;;;;;3.50;3.00;;;;;14.52;62.08;101578.19;5066787;28;47629;-75
2022/04/15 02:06:40;;;;;;;;;6.00;4.00;;;;;14.51;61.71;101589.72;5076228;28;45364;-76
2022/04/15 02:09:06;;;;;;;;;6.00;5.50;;;;;14.50;62.24;101582.66;5075773;27;45391;-76
2022/04/15 02:11:33;;;;;;;;;6.25;6.00;;;;;14.47;62.36;101582.72;5078115;28;45539;-75
2022/04/15 02:13:58;;;;;;;;;4.00;4.00;;;;;14.44;62.02;101585.44;5084116;27;46745;-76
2022/04/15 02:16:23;;;;;;;;;3.75;3.75;;;;;14.40;62.51;101582.84;5096942;27;45504;-77
2022/04/15 02:18:49;;;;;;;;;7.50;7.50;;;;;14.40;61.78;101587.28;5096353;27;45441;-76
2022/04/15 02:21:14;;;;;;;;;5.00;5.00;;;;;14.40;61.94;101590.81;5102164;27;45541;-76
2022/04/15 02:23:39;;;;;;;;;2.50;0.75;;;;;14.42;62.16;101593.44;5094780;27;45499;-76
2022/04/15 02:26:05;;;;;;;;;1.00;1.00;;;;;14.33;62.06;101591.88;5097502;27;45447;-76
2022/04/15 02:28:30;;;;;;;;;3.00;3.00;;;;;14.34;62.36;101588.28;5087043;27;45445;-80
2022/04/15 02:30:55;;;;;;;;;6.00;5.50;;;;;14.32;61.95;101584.78;5077243;28;45655;-80
2022/04/15 02:33:21;;;;;;;;;8.50;6.75;;;;;14.31;62.34;101577.69;5079591;27;47112;-79
2022/04/15 02:35:46;;;;;;;;;6.25;6.25;;;;;14.27;62.44;101585.78;5097129;27;45440;-80
2022/04/15 02:38:11;;;;;;;;;4.00;4.00;;;;;14.29;62.12;101590.16;5086809;27;45395;-81
2022/04/15 02:40:38;;;;;;;;;1.50;1.50;;;;;14.26;62.45;101582.25;5081990;28;45434;-81
2022/04/15 02:43:03;;;;;;;;;4.00;4.00;;;;;14.27;62.04;101584.00;5079756;28;46041;-74
2022/04/15 02:45:29;;;;;;;;;4.00;3.00;;;;;14.25;62.09;101588.47;5077027;28;45497;-76
2022/04/15 02:47:55;;;;;;;;;3.50;3.00;;;;;14.25;62.29;101592.91;5081269;27;45445;-76
2022/04/15 02:50:21;;;;;;;;;3.50;3.00;;;;;14.17;62.26;101585.94;5095764;27;45599;-74
2022/04/15 02:52:46;;;;;;;;;4.00;3.50;;;;;14.20;62.43;101595.66;5096123;27;46960;-75
2022/04/15 02:55:12;;;;;;;;;8.25;4.00;;;;;14.20;62.42;101590.34;5097056;27;45382;-76
2022/04/15 02:57:38;;;;;;;;;5.50;5.50;;;;;14.14;62.58;101588.66;5093485;27;45410;-76
2022/04/15 03:00:05;;;;;;;;;3.00;3.00;;;;;14.17;62.80;101601.03;5083740;27;45562;-76
2022/04/15 03:02:32;;;;;;;;;3.75;3.75;;;;;14.14;62.81;101599.28;5094736;27;46129;-75
2022/04/15 03:04:57;;;;;;;;;3.25;3.25;;;;;14.12;62.53;101597.56;5095574;27;45391;-76
2022/04/15 03:07:23;;;;;;;;;6.75;5.50;;;;;14.07;62.73;101594.13;5094415;27;45922;-77
2022/04/15 03:09:48;;;;;;;;;6.00;3.25;;;;;14.06;63.25;101593.25;5077707;27;45485;-77
2022/04/15 03:12:13;;;;;;;;;8.25;8.00;;;;;14.09;63.24;101592.31;5095926;27;46982;-74
2022/04/15 03:14:39;;;;;;;;;1.00;1.00;;;;;14.08;63.31;101595.88;5097188;27;45395;-76
2022/04/15 03:17:05;;;;;;;;;7.00;6.75;;;;;14.04;63.03;101585.31;5097008;27;45325;-80
2022/04/15 03:19:31;;;;;;;;;3.75;3.75;;;;;14.02;62.75;101592.41;5092029;27;45348;-80
2022/04/15 03:21:56;;;;;;;;;5.75;5.75;;;;;14.02;62.89;101592.41;5097761;27;45926;-80
2022/04/15 03:24:21;;;;;;;;;2.50;2.50;;;;;13.99;63.06;101589.81;5070285;27;45471;-80
2022/04/15 03:26:47;;;;;;;;;8.25;6.00;;;;;13.99;62.95;101594.28;5076367;28;49709;-80
2022/04/15 03:29:12;;;;;;;;;7.50;6.00;;;;;13.96;63.23;101596.97;5075323;27;45609;-80
2022/04/15 03:31:37;;;;;;;;;6.50;6.25;;;;;13.94;63.57;101597.00;5090674;27;45339;-80
2022/04/15 03:34:03;;;;;;;;;6.00;4.00;;;;;13.92;63.90;101593.47;5094970;27;45271;-81
2022/04/15 03:36:29;;;;;;;;;9.00;6.00;;;;;13.93;63.86;101603.22;5083958;27;45334;-80
2022/04/15 03:38:55;;;;;;;;;3.25;3.25;;;;;13.89;64.94;101601.50;5100634;27;45393;-80
2022/04/15 03:41:22;;;;;;;;;3.25;1.00;;;;;13.88;65.58;101602.44;5100317;27;46439;-79
2022/04/15 03:43:50;;;;;;;;;3.75;3.75;;;;;13.84;65.78;101592.75;5070709;28;45512;-79
2022/04/15 03:46:15;;;;;;;;;7.00;5.50;;;;;13.77;66.23;101593.75;5078065;28;45425;-81
2022/04/15 03:48:41;;;;;;;;;7.00;6.75;;;;;13.75;66.51;101598.22;5079483;28;45505;-80
2022/04/15 03:51:08;;;;;;;;;6.00;6.00;;;;;13.75;66.76;101603.53;5072253;27;45604;-81
2022/04/15 03:53:34;;;;;;;;;6.00;3.00;;;;;13.74;67.12;101601.78;5098681;27;45418;-81
2022/04/15 03:55:59;;;;;;;;;9.00;4.00;;;;;13.66;67.29;101594.84;5092166;27;45418;-79
2022/04/15 03:58:25;;;;;;;;;3.00;3.00;;;;;13.60;67.46;101592.25;5080288;27;45408;-80
2022/04/15 04:00:50;;;;;;;;;6.00;6.00;;;;;13.61;67.79;101604.66;5077441;27;45451;-79
2022/04/15 04:03:16;;;;;;;;;11.00;7.00;;;;;13.59;68.13;101600.25;5099660;27;45377;-79
2022/04/15 04:05:41;;;;;;;;;6.00;6.00;;;;;13.58;67.77;101603.81;5100165;27;45457;-80
2022/04/15 04:08:07;;;;;;;;;5.00;5.00;;;;;13.57;68.04;101605.59;5101025;27;45467;-81
2022/04/15 04:10:33;;;;;;;;;4.50;4.50;;;;;13.53;68.20;101601.25;5099665;27;47264;-80
2022/04/15 04:12:59;;;;;;;;;8.00;6.75;;;;;13.48;68.52;101600.44;5092611;27;45575;-80
2022/04/15 04:15:24;;;;;;;;;4.00;4.00;;;;;13.50;68.22;101609.28;5083061;28;45479;-80
2022/04/15 04:17:50;;;;;;;;;10.00;7.50;;;;;13.47;68.56;101619.94;5079803;27;45491;-80
2022/04/15 04:20:17;;;;;;;;;4.00;1.50;;;;;13.35;69.09;101605.06;5113118;27;45357;-80
2022/04/15 04:22:42;;;;;;;;;7.00;4.50;;;;;13.43;68.86;101618.22;5083268;27;45491;-81
2022/04/15 04:25:10;;;;;;;;;7.00;7.00;;;;;13.40;68.67;101623.59;5094658;27;45404;-81
2022/04/15 04:27:37;;;;;;;;;6.00;6.00;;;;;13.36;68.81;101625.41;5094837;27;45581;-79
2022/04/15 04:30:04;;;;;;;;;10.25;8.00;;;;;13.35;68.89;101614.81;5094947;27;46290;-80
2022/04/15 04:32:29;;;;;;;;;13.75;9.50;;;;;13.33;68.88;101623.69;5097288;27;45517;-80
2022/04/15 04:34:54;;;;;;;;;10.00;4.50;;;;;13.30;69.56;101626.34;5095698;27;45496;-79
2022/04/15 04:37:20;;;;;;;;;11.50;10.75;;;;;13.30;69.20;101629.00;5076908;27;45493;-80
2022/04/15 04:39:46;;;;;;;;;6.75;6.75;;;;;13.28;69.03;101625.47;5092358;27;46308;-81
2022/04/15 04:42:11;;;;;;;;;6.50;6.50;;;;;13.27;69.36;101634.34;5093333;27;45622;-80
2022/04/15 04:44:39;;;;;;;;;6.00;6.00;;;;;13.20;69.57;101630.03;5104007;27;45421;-79
2022/04/15 04:47:06;;;;;;;;;4.50;4.00;;;;;13.23;70.07;101635.28;5101150;27;45607;-80
2022/04/15 04:49:32;;;;;;;;;7.00;6.00;;;;;13.20;70.06;101630.03;5100089;27;45398;-80
2022/04/15 04:51:58;;;;;;;;;15.75;12.50;;;;;13.20;69.38;101638.00;5080088;27;45434;-82
2022/04/15 04:54:24;;;;;;;;;8.00;6.50;;;;;13.20;69.63;101642.44;5078401;27;45485;-81
2022/04/15 04:56:49;;;;;;;;;4.50;4.50;;;;;13.18;69.59;101634.50;5080122;27;45404;-81
2022/04/15 04:59:15;;;;;;;;;7.00;6.00;;;;;13.19;69.66;101638.00;5096672;27;45504;-79
2022/04/15 05:01:40;;;;;;;;;7.50;7.50;;;;;13.18;70.14;101646.88;5075817;27;45375;-80
2022/04/15 05:04:05;;;;;;;;;9.00;4.50;;;;;13.21;69.54;101645.06;5095520;27;45433;-78
2022/04/15 05:06:31;;;;;;;;;9.75;9.75;;;;;13.23;70.24;101648.56;5094780;27;45345;-79
2022/04/15 05:08:56;;;;;;;;;9.50;7.00;;;;;13.27;70.13;101649.38;5086156;27;46288;-79
2022/04/15 05:11:21;;;;;;;;;11.50;11.50;;;;;13.39;70.02;101659.00;5078180;28;45295;-79
2022/04/15 05:13:47;;;;;;;;;7.00;7.00;;;;;13.57;69.23;101653.41;5059922;28;45448;-80
2022/04/15 05:16:12;;;;;;;;;6.00;6.00;;;;;13.89;68.92;101653.78;5101312;27;45244;-80
2022/04/15 05:18:38;;;;;;;;;9.00;9.00;;;;;14.12;68.04;101659.59;5079907;27;48065;-81
2022/04/15 05:21:03;;;;;;;;;9.00;5.00;;;;;14.33;67.57;101660.09;5097668;27;45544;-80
2022/04/15 05:23:28;;;;;;;;;7.50;6.00;;;;;14.51;66.52;101665.06;5097268;27;45378;-81
2022/04/15 05:25:54;;;;;;;;;12.00;9.50;;;;;14.74;65.88;101664.69;5099198;27;45437;-81
2022/04/15 05:28:19;;;;;;;;;7.25;7.00;;;;;15.14;64.37;101659.41;5096415;27;45363;-79
2022/04/15 05:30:44;;;;;;;;;11.50;7.50;;;;;15.66;62.83;101662.69;5098878;27;45495;-80
2022/04/15 05:33:10;;;;;;;;;2.25;1.50;;;;;16.21;60.95;101665.78;5099525;27;45482;-80
2022/04/15 05:35:35;;;;;;;;;7.00;7.00;;;;;16.84;59.25;101664.91;5097139;27;45548;-82
2022/04/15 05:38:02;;;;;;;;;5.75;5.75;;;;;17.43;57.80;101655.19;5091193;27;45563;-81
2022/04/15 05:40:28;;;;;;;;;6.75;3.75;;;;;18.03;55.61;101663.91;5091704;27;45453;-80
2022/04/15 05:42:54;;;;;;;;;10.00;7.50;;;;;18.61;53.99;101660.13;5098575;27;45650;-81
2022/04/15 05:45:20;;;;;;;;;10.00;8.00;;;;;19.06;52.04;101669.22;5083282;27;45551;-81
2022/04/15 05:47:45;;;;;;;;;7.00;4.75;;;;;19.46;51.05;101662.28;5100901;27;45299;-81
2022/04/15 05:50:10;;;;;;;;;6.00;6.00;;;;;19.84;49.76;101662.53;5099663;27;45440;-80
2022/04/15 05:52:36;;;;;;;;;6.00;6.00;;;;;20.26;48.81;101664.34;5097931;27;45418;-79
2022/04/15 05:55:01;;;;;;;;;10.25;10.25;;;;;20.37;47.94;101655.81;5098071;27;45600;-79
2022/04/15 05:57:26;;;;;;;;;7.75;4.00;;;;;20.61;46.92;101659.22;5097391;27;46221;-79
2022/04/15 05:59:52;;;;;;;;;8.50;7.50;;;;;21.05;47.35;101656.31;5078313;27;45815;-79
2022/04/15 06:02:17;;;;;;;;;1.75;1.75;;;;;21.78;45.44;101664.47;5093568;27;45520;-76
2022/04/15 06:04:43;;;;;;;;;4.25;4.25;;;;;22.32;43.99;101661.78;5097014;27;45422;-77
2022/04/15 06:07:08;;;;;;;;;9.50;7.75;;;;;22.37;43.21;101661.53;5096040;27;45365;-81
2022/04/15 06:09:34;;;;;;;;;11.50;8.75;;;;;22.84;42.26;101660.81;5078134;27;45567;-80
2022/04/15 06:12:00;;;;;;;;;6.00;6.00;;;;;23.14;41.63;101651.13;5082353;28;45534;-80
2022/04/15 06:14:25;;;;;;;;;5.00;5.00;;;;;23.35;40.69;101668.81;5083527;27;45536;-80
2022/04/15 06:16:51;;;;;;;;;11.25;6.50;;;;;23.26;40.50;101676.53;5098534;27;45418;-79
2022/04/15 06:19:17;;;;;;;;;12.50;10.50;;;;;23.76;39.47;101686.25;5112018;27;45383;-80
2022/04/15 06:21:43;;;;;;;;;10.75;9.00;;;;;23.87;39.73;101686.53;5113164;27;45412;-80
2022/04/15 06:24:08;;;;;;;;;7.00;7.00;;;;;24.27;38.06;101686.00;5103902;27;45514;-81
2022/04/15 06:26:34;;;;;;;;;2.50;2.50;;;;;24.91;38.22;101675.75;5102392;27;45970;-81
2022/04/15 06:29:00;;;;;;;;;10.00;8.00;;;;;25.39;36.11;101679.97;5088005;27;45403;-80
2022/04/15 06:31:26;;;;;;;;;5.50;5.50;;;;;25.94;35.00;101684.41;5089895;27;45461;-78
2022/04/15 06:33:52;;;;;;;;;12.75;8.00;;;;;26.14;35.38;101665.97;5094685;27;45231;-82
2022/04/15 06:36:18;;;;;;;;;8.25;5.00;;;;;26.18;34.85;101684.63;5098267;27;45488;-81
2022/04/15 06:38:43;;;;;;;;;8.25;7.75;;;;;25.77;36.32;101682.00;5095171;27;45597;-79
2022/04/15 06:41:09;;;;;;;;;8.00;8.00;;;;;25.44;35.56;101688.66;5095687;27;45318;-79
2022/04/15 06:43:34;;;;;;;;;8.00;8.00;;;;;25.14;35.95;101686.94;5091136;27;45501;-78
2022/04/15 06:46:01;;;;;;;;;10.00;10.00;;;;;25.47;35.69;101688.47;5095220;27;45527;-78
2022/04/15 06:48:26;;;;;;;;;8.25;6.75;;;;;25.70;35.17;101695.06;5102010;27;45442;-80
2022/04/15 06:50:53;;;;;;;;;9.00;7.25;;;;;26.20;34.93;101692.66;5099843;27;45439;-79
2022/04/15 06:53:19;;;;;;;;;7.50;6.25;;;;;26.67;34.21;101690.34;5097771;27;45466;-79
2022/04/15 06:55:44;;;;;;;;;6.25;6.00;;;;;27.20;33.26;101687.47;5085047;27;45565;-79
2022/04/15 06:58:10;;;;;;;;;8.00;8.00;;;;;27.57;32.24;101688.31;5089179;27;45524;-79
2022/04/15 07:00:36;;;;;;;;;14.00;11.50;;;;;27.82;31.73;101679.22;5078375;27;45435;-73
2022/04/15 07:03:03;;;;;;;;;9.75;6.75;;;;;28.21;31.21;101686.28;5090708;27;45625;-73
2022/04/15 07:05:28;;;;;;;;;10.00;6.50;;;;;28.44;30.58;101688.09;5088991;27;47141;-74
2022/04/15 07:07:53;;;;;;;;;11.50;9.25;;;;;28.60;29.56;101681.47;5092825;27;45545;-75
2022/04/15 07:10:19;;;;;;;;;13.25;13.25;;;;;28.45;29.92;101684.38;5085807;27;45528;-74
2022/04/15 07:12:44;;;;;;;;;6.25;6.00;;;;;28.23;30.31;101689.78;5086127;27;45495;-75
2022/04/15 07:15:10;;;;;;;;;5.50;5.50;;;;;28.26;30.87;101686.81;5094423;27;46231;-74
2022/04/15 07:17:35;;;;;;;;;9.75;9.75;;;;;28.44;31.29;101696.25;5095612;27;45607;-75
2022/04/15 07:20:01;;;;;;;;;13.25;11.50;;;;;28.73;30.60;101695.81;5092693;27;45588;-73
2022/04/15 07:22:26;;;;;;;;;11.50;11.25;;;;;28.88;30.02;101697.31;5090507;27;45592;-75
2022/04/15 07:24:51;;;;;;;;;7.00;6.00;;;;;29.16;29.58;101692.34;5094350;27;45492;-75
2022/04/15 07:27:17;;;;;;;;;9.75;6.75;;;;;29.33;29.58;101703.75;5094830;27;45421;-74
2022/04/15 07:29:44;;;;;;;;;5.50;2.75;;;;;29.62;29.36;101697.75;5094739;27;45523;-74
2022/04/15 07:32:10;;;;;;;;;12.75;12.25;;;;;29.89;28.24;101700.88;5093541;27;45647;-74
2022/04/15 07:34:35;;;;;;;;;12.00;10.75;;;;;29.91;28.75;101687.13;5091564;27;45981;-74
2022/04/15 07:37:03;;;;;;;;;15.50;13.75;;;;;30.13;28.09;101697.06;5092798;27;45385;-73
2022/04/15 07:39:28;;;;;;;;;3.25;2.25;;;;;30.30;28.05;101696.47;5075426;27;45334;-74
2022/04/15 07:41:53;;;;;;;;;10.75;8.50;;;;;30.57;27.80;101700.56;5094578;27;45568;-75
2022/04/15 07:44:19;;;;;;;;;11.75;11.75;;;;;30.90;27.88;101695.84;5093233;27;45480;-73
2022/04/15 07:46:46;;;;;;;;;13.75;10.50;;;;;31.01;27.05;101689.47;5095591;27;45524;-74
2022/04/15 07:49:12;;;;;;;;;10.25;9.75;;;;;31.15;27.20;101699.13;5074859;27;45473;-74
2022/04/15 07:51:38;;;;;;;;;13.00;11.00;;;;;31.37;26.46;101700.78;5094348;27;45430;-75
2022/04/15 07:54:05;;;;;;;;;7.75;6.75;;;;;31.76;26.18;101702.72;5092428;27;45515;-74
2022/04/15 07:56:32;;;;;;;;;16.25;14.25;;;;;31.94;25.73;101695.53;5093438;27;45600;-74
2022/04/15 07:58:57;;;;;;;;;8.25;7.00;;;;;32.28;25.76;101700.59;5092793;27;45402;-74
2022/04/15 08:01:23;;;;;;;;;19.50;17.00;;;;;32.55;25.48;101696.22;5092253;27;45678;-74
2022/04/15 08:03:48;;;;;;;;;10.50;10.50;;;;;32.90;24.94;101702.88;5050735;27;46533;-74
2022/04/15 08:06:15;;;;;;;;;14.25;13.50;;;;;32.79;25.16;101703.09;5087479;27;45442;-75
2022/04/15 08:08:40;;;;;;;;;14.00;12.00;;;;;32.84;24.44;101696.13;5093114;27;45413;-74
2022/04/15 08:11:06;;;;;;;;;9.00;9.00;;;;;32.71;23.87;101703.84;5093082;27;45458;-77
2022/04/15 08:13:32;;;;;;;;;12.50;11.00;;;;;32.57;23.92;101702.41;5091511;27;45421;-75
2022/04/15 08:15:58;;;;;;;;;9.50;8.00;;;;;32.50;23.96;101701.28;5090123;27;45507;-76
2022/04/15 08:18:25;;;;;;;;;3.50;3.50;;;;;32.54;25.81;101705.41;5094095;27;45444;-77
2022/04/15 08:20:51;;;;;;;;;6.00;5.25;;;;;32.55;24.41;101707.16;5091863;27;45378;-76
2022/04/15 08:23:17;;;;;;;;;9.75;9.75;;;;;32.72;24.35;101700.94;5093732;27;46187;-77
2022/04/15 08:25:44;;;;;;;;;9.75;9.75;;;;;32.71;24.31;101707.44;5090729;27;45426;-75
2022/04/15 08:28:10;;;;;;;;;10.50;10.50;;;;;32.24;24.13;101702.75;5089664;27;45462;-75
2022/04/15 08:30:37;;;;;;;;;11.00;10.50;;;;;32.06;24.31;101708.03;5092591;27;45464;-75
2022/04/15 08:33:05;;;;;;;;;6.25;5.50;;;;;31.79;24.60;101703.31;5077906;27;45638;-76
2022/04/15 08:35:31;;;;;;;;;11.00;7.25;;;;;31.74;24.54;101707.50;5088165;27;45627;-75
2022/04/15 08:37:57;;;;;;;;;11.00;9.00;;;;;31.56;25.42;101705.44;5092630;27;45537;-73
2022/04/15 08:40:27;;;;;;;;;7.50;6.00;;;;;31.48;24.60;101705.25;5093397;27;45709;-73
2022/04/15 08:42:53;;;;;;;;;14.00;13.00;;;;;31.24;25.27;101702.91;5085064;27;46129;-73
2022/04/15 08:45:21;;;;;;;;;3.75;2.75;;;;;30.99;25.53;101710.53;5094429;27;45497;-75
2022/04/15 08:47:46;;;;;;;;;11.50;7.25;;;;;31.01;25.90;101714.03;5093924;27;45385;-75
2022/04/15 08:50:12;;;;;;;;;6.00;5.25;;;;;30.98;25.88;101712.41;5076933;27;45540;-74
2022/04/15 08:52:37;;;;;;;;;11.75;7.25;;;;;31.26;25.91;101718.13;5077111;27;45667;-74
2022/04/15 08:55:06;;;;;;;;;8.00;7.75;;;;;31.44;24.85;101712.84;5079643;27;45601;-75
2022/04/15 08:57:32;;;;;;;;;5.00;5.00;;;;;31.42;24.98;101722.22;5095858;27;45390;-75
2022/04/15 08:59:57;;;;;;;;;7.25;5.50;;;;;31.49;25.13;101720.63;5096435;27;45581;-79
2022/04/15 09:02:37;;;;;;;;;7.00;7.00;;;;;31.38;24.60;101721.59;5092582;27;45523;-79
2022/04/15 09:05:04;;;;;;;;;2.50;2.50;;;;;31.31;25.42;101721.31;5091448;27;45447;-78
2022/04/15 09:07:31;;;;;;;;;6.00;3.50;;;;;31.29;25.89;101717.84;5086591;27;45405;-79
2022/04/15 09:09:58;;;;;;;;;5.00;5.00;;;;;31.29;24.90;101717.84;5097799;27;45620;-79
2022/04/15 09:12:35;;;;;;;;;2.00;2.00;;;;;31.08;25.53;101725.25;5094222;27;46187;-79
2022/04/15 09:15:11;;;;;;;;;7.50;6.50;;;;;30.97;25.65;101728.91;5097612;27;45419;-79
2022/04/15 09:17:38;;;;;;;;;6.00;4.50;;;;;30.81;25.44;101723.94;5105495;27;45433;-79
2022/04/15 09:20:06;;;;;;;;;4.50;4.50;;;;;30.91;25.72;101730.28;5104143;27;45430;-78
2022/04/15 09:22:31;;;;;;;;;8.25;8.25;;;;;30.71;25.88;101728.47;5099052;27;45649;-79
2022/04/15 09:24:58;;;;;;;;;1.75;1.75;;;;;30.63;26.01;101727.28;5079018;27;45459;-79
2022/04/15 09:27:23;;;;;;;;;8.00;7.50;;;;;30.62;25.84;101736.47;5097055;27;45432;-80
2022/04/15 09:29:51;;;;;;;;;3.50;2.25;;;;;30.50;26.53;101720.31;5096028;27;45408;-80
2022/04/15 09:32:18;;;;;;;;;4.50;4.50;;;;;30.73;26.51;101741.00;5091658;27;45523;-79
2022/04/15 09:34:59;;;;;;;;;2.25;2.25;;;;;30.84;25.85;101731.88;5096724;27;45349;-79
2022/04/15 09:37:51;;;;;;;;;4.50;2.75;;;;;30.78;26.41;101730.53;5093081;27;45413;-76
2022/04/15 09:40:18;;;;;;;;;5.00;3.00;;;;;30.99;25.94;101730.53;5079239;27;45493;-76
2022/04/15 09:42:52;;;;;;;;;1.50;1.00;;;;;30.87;25.73;101727.97;5093540;27;46369;-78
2022/04/15 09:45:28;;;;;;;;;2.00;2.00;;;;;31.16;25.62;101722.69;5096846;27;45399;-76
2022/04/15 09:47:58;;;;;;;;;4.50;3.50;;;;;31.17;25.92;101710.75;5097937;27;45394;-75
2022/04/15 09:50:29;;;;;;;;;6.25;4.00;;;;;31.27;25.49;101724.47;5097350;27;45695;-79
2022/04/15 09:53:17;;;;;;;;;5.25;2.50;;;;;31.11;26.16;101724.97;5079618;27;46958;-78
2022/04/15 09:55:52;;;;;;;;;10.50;9.50;;;;;31.04;25.29;101721.94;5096063;27;45405;-74
2022/04/15 09:58:28;;;;;;;;;3.00;2.00;;;;;31.09;25.96;101726.97;5085714;27;45595;-75
2022/04/15 10:00:56;;;;;;;;;6.25;4.00;;;;;31.28;25.26;101721.59;5091474;27;45538;-74
2022/04/15 10:03:23;;;;;;;;;2.00;2.00;;;;;31.33;24.77;101722.03;5095648;27;45524;-74
2022/04/15 10:05:50;;;;;;;;;5.00;5.00;;;;;31.13;25.68;101722.97;5095104;27;45568;-80
2022/04/15 10:08:19;;;;;;;;;5.50;5.50;;;;;31.26;25.59;101718.13;5091370;27;45481;-76
2022/04/15 10:10:45;;;;;;;;;6.75;3.75;;;;;31.09;25.30;101721.50;5095776;27;45586;-77
2022/04/15 10:13:13;;;;;;;;;9.75;9.25;;;;;31.11;25.15;101720.38;5093283;27;45627;-85
2022/04/15 10:15:39;;;;;;;;;4.50;3.00;;;;;31.33;25.91;101712.97;5095982;27;45460;-74
2022/04/15 10:18:05;;;;;;;;;6.75;6.75;;;;;31.60;25.13;101720.53;5090926;27;45533;-76
2022/04/15 10:20:32;;;;;;;;;1.00;1.00;;;;;31.96;25.15;101711.78;5095861;27;45327;-76
2022/04/15 10:23:06;;;;;;;;;4.50;4.50;;;;;32.07;24.65;101714.41;5093952;27;46335;-75
2022/04/15 10:25:33;;;;;;;;;1.25;0.00;;;;;31.96;24.15;101723.59;5090371;27;45461;-76
2022/04/15 10:28:05;;;;;;;;;2.75;1.00;;;;;31.78;24.84;101717.09;5081843;27;45397;-80
2022/04/15 10:30:31;;;;;;;;;0.00;0.00;;;;;31.55;24.55;101702.84;5081863;27;45491;-79
2022/04/15 10:32:57;;;;;;;;;1.00;1.00;;;;;31.42;24.88;101720.31;5090732;27;46408;-80
2022/04/15 10:35:27;;;;;;;;;10.00;10.00;;;;;31.56;24.92;101715.50;5075109;27;45379;-76
2022/04/15 10:38:05;;;;;;;;;1.00;0.00;;;;;31.67;25.00;101704.44;5094124;27;45558;-76
2022/04/15 10:40:32;;;;;;;;;1.75;1.75;;;;;31.89;25.51;101704.16;5097276;27;45401;-80
2022/04/15 10:43:22;;;;;;;;;3.50;2.00;;;;;31.91;24.42;101706.75;5099889;27;46380;-79
2022/04/15 10:45:51;;;;;;;;;5.00;1.00;;;;;30.91;25.31;101696.69;5093445;27;45421;-80
2022/04/15 10:48:29;;;;;;;;;3.00;3.00;;;;;30.71;25.29;101709.38;5097692;27;45549;-77
2022/04/15 10:50:54;;;;;;;;;5.25;3.50;;;;;30.91;24.94;101708.47;5088155;27;45303;-75
2022/04/15 10:53:26;;;;;;;;;1.75;1.75;;;;;31.18;24.90;101696.13;5091400;27;46197;-79
2022/04/15 10:55:52;;;;;;;;;0.00;0.00;;;;;31.18;25.09;101698.84;5080030;27;45722;-79
2022/04/15 10:58:20;;;;;;;;;2.00;2.00;;;;;30.98;25.21;101698.78;5096623;27;45370;-80
2022/04/15 11:01:19;;;;;;;;;2.25;2.25;;;;;30.86;25.20;101694.38;5087275;27;45507;-81
2022/04/15 11:03:53;;;;;;;;;5.00;5.00;;;;;31.21;24.75;101693.13;5094586;27;45821;-75
2022/04/15 11:06:26;;;;;;;;;1.50;1.50;;;;;30.97;25.02;101690.69;5092950;27;45598;-75
2022/04/15 11:08:53;;;;;;;;;6.00;6.00;;;;;31.15;25.12;101697.25;5088109;27;45485;-78
2022/04/15 11:11:33;;;;;;;;;3.50;3.50;;;;;31.07;24.68;101686.19;5078589;27;45728;-79
2022/04/15 11:14:00;;;;;;;;;1.00;1.00;;;;;30.23;25.25;101691.69;5088357;27;46943;-79
2022/04/15 11:16:48;;;;;;;;;0.50;0.50;;;;;30.06;25.66;101684.97;5101962;27;45476;-79
2022/04/15 11:19:33;;;;;;;;;1.00;0.00;;;;;30.36;24.85;101670.53;5102064;27;45365;-80
2022/04/15 11:22:00;;;;;;;;;1.00;0.50;;;;;30.42;24.52;101685.53;5096211;27;45720;-80